Time;durP1;ratioP1;P1;durP2;ratioP2;P2;SDS_P1;SDS_P2;PMS_P1;PMS_P2;Temp;Humidity;BMP_temperature;BMP_pressure;BME280_temperature;BME280_humidity;BME280_pressure;Samples;Min_cycle;Max_cycle;Signal;HPM_P1;HPM_P2
2022/12/13 00:00:17;;;;;;;4.07;3.38;;;;;;;4.03;89.86;98776.22;4995986;28;20074;-72
2022/12/13 00:02:43;;;;;;;3.40;3.08;;;;;;;3.97;90.22;98769.16;5015106;28;20479;-72
2022/12/13 00:05:09;;;;;;;3.60;2.88;;;;;;;3.97;91.31;98760.84;5010857;28;20026;-72
2022/12/13 00:07:35;;;;;;;9.75;5.65;;;;;;;4.12;92.57;98779.09;4995325;28;20022;-72
2022/12/13 00:10:01;;;;;;;5.15;4.25;;;;;;;4.04;91.44;98778.69;4995018;28;20061;-72
2022/12/13 00:12:26;;;;;;;4.30;3.90;;;;;;;4.01;92.37;98779.31;5013942;28;20025;-72
2022/12/13 00:14:52;;;;;;;3.85;3.47;;;;;;;4.06;92.20;98792.22;5010828;28;20536;-72
2022/12/13 00:17:18;;;;;;;5.72;4.22;;;;;;;4.02;91.26;98792.03;5009263;28;20848;-71
2022/12/13 00:19:43;;;;;;;4.68;3.78;;;;;;;4.07;92.52;98783.59;5014703;28;20032;-72
2022/12/13 00:22:08;;;;;;;4.50;3.67;;;;;;;4.04;90.81;98811.91;5014586;28;20044;-72
2022/12/13 00:24:34;;;;;;;4.10;3.45;;;;;;;3.99;91.47;98808.41;5013095;28;20045;-72
2022/12/13 00:26:59;;;;;;;6.63;4.22;;;;;;;3.96;91.02;98811.81;5012688;28;20028;-71
2022/12/13 00:29:25;;;;;;;4.53;4.03;;;;;;;3.97;90.93;98810.66;5014654;28;20376;-72
2022/12/13 00:31:50;;;;;;;5.93;4.55;;;;;;;3.96;90.28;98809.84;5013891;28;20026;-72
2022/12/13 00:34:17;;;;;;;5.07;4.00;;;;;;;3.98;89.09;98813.16;5011775;28;20058;-72
2022/12/13 00:36:43;;;;;;;6.40;4.13;;;;;;;3.83;89.04;98810.66;4995061;28;20022;-72
2022/12/13 00:39:11;;;;;;;6.63;4.38;;;;;;;4.13;87.48;98827.78;5035317;28;20149;-71
2022/12/13 00:41:37;;;;;;;6.03;3.92;;;;;;;3.99;87.24;98831.38;5003376;28;20041;-72
2022/12/13 00:44:03;;;;;;;5.32;4.55;;;;;;;4.06;87.05;98822.66;5012905;28;20408;-71
2022/12/13 00:46:28;;;;;;;5.95;4.43;;;;;;;3.78;85.88;98820.69;5014105;28;20026;-71
2022/12/13 00:48:57;;;;;;;8.60;4.72;;;;;;;3.81;86.17;98832.28;5013788;28;20037;-71
2022/12/13 00:51:24;;;;;;;6.80;5.05;;;;;;;3.76;87.37;98835.97;5009373;28;20057;-71
2022/12/13 00:53:50;;;;;;;12.25;6.05;;;;;;;3.74;86.75;98830.75;4994343;28;20022;-71
2022/12/13 00:56:22;;;;;;;8.27;5.60;;;;;;;3.64;86.40;98823.44;4999657;28;20025;-71
2022/12/13 00:58:48;;;;;;;6.90;5.97;;;;;;;3.64;87.89;98825.41;5013646;28;20022;-71
2022/12/13 01:01:17;;;;;;;9.15;5.40;;;;;;;3.65;88.28;98838.09;5012767;28;20034;-71
2022/12/13 01:03:43;;;;;;;6.90;5.15;;;;;;;3.81;87.72;98830.34;5012587;28;20459;-71
2022/12/13 01:06:35;;;;;;;7.60;5.20;;;;;;;3.63;87.23;98818.22;5013766;28;20030;-71
2022/12/13 01:09:02;;;;;;;6.85;4.93;;;;;;;3.76;86.70;98822.97;5035161;28;20042;-71
2022/12/13 01:11:28;;;;;;;9.15;5.43;;;;;;;3.79;85.54;98819.56;4993965;28;20069;-71
2022/12/13 01:13:53;;;;;;;6.30;4.60;;;;;;;3.80;85.32;98828.69;4994099;28;20397;-71
2022/12/13 01:16:18;;;;;;;6.70;4.78;;;;;;;3.64;84.90;98839.22;4992695;28;20088;-71
2022/12/13 01:18:44;;;;;;;6.88;4.65;;;;;;;3.62;85.54;98841.44;4993992;28;20026;-71
2022/12/13 01:21:13;;;;;;;7.53;5.72;;;;;;;3.53;85.82;98848.81;5000456;28;20029;-71
2022/12/13 01:23:40;;;;;;;7.65;5.40;;;;;;;3.54;85.53;98865.09;5009349;28;20112;-71
2022/12/13 01:26:09;;;;;;;8.80;5.28;;;;;;;3.47;85.42;98865.50;5004152;28;20018;-71
2022/12/13 01:28:34;;;;;;;8.70;5.80;;;;;;;3.54;85.04;98878.13;4992532;28;20026;-71
2022/12/13 01:31:03;;;;;;;9.02;5.53;;;;;;;3.61;83.17;98870.25;5025368;28;20432;-71
2022/12/13 01:33:29;;;;;;;6.35;5.07;;;;;;;3.50;82.62;98877.91;5011364;28;20111;-71
2022/12/13 01:35:55;;;;;;;7.90;5.43;;;;;;;3.64;82.96;98870.47;5013242;28;20022;-71
2022/12/13 01:38:21;;;;;;;7.65;5.40;;;;;;;3.83;83.58;98877.06;4998115;28;20029;-71
2022/12/13 01:40:56;;;;;;;8.80;5.90;;;;;;;3.61;83.63;98871.06;5004373;28;20026;-71
2022/12/13 01:43:24;;;;;;;7.35;4.97;;;;;;;3.97;83.94;98868.78;5001769;28;20126;-71
2022/12/13 01:45:49;;;;;;;6.82;5.68;;;;;;;3.85;83.37;98869.25;5011545;28;20041;-71
2022/12/13 01:48:30;;;;;;;6.70;5.40;;;;;;;3.70;82.76;98873.97;5012493;28;20397;-71
2022/12/13 01:51:01;;;;;;;7.75;5.45;;;;;;;3.55;84.36;98872.28;5011289;28;20050;-71
2022/12/13 01:53:30;;;;;;;8.60;6.55;;;;;;;3.53;83.79;98870.94;5005806;28;20045;-71
2022/12/13 01:56:04;;;;;;;13.43;7.20;;;;;;;3.62;82.79;98877.41;5011948;28;20084;-71
2022/12/13 01:58:30;;;;;;;7.20;6.03;;;;;;;3.39;84.06;98884.72;5011520;28;20033;-71
2022/12/13 02:00:57;;;;;;;7.32;5.22;;;;;;;3.36;83.77;98886.13;4996719;28;20100;-71
2022/12/13 02:03:23;;;;;;;8.57;6.28;;;;;;;3.14;83.21;98887.59;4992785;28;20061;-71
2022/12/13 02:06:06;;;;;;;10.10;6.85;;;;;;;3.19;85.51;98893.03;4993102;28;20076;-71
2022/12/13 02:08:33;;;;;;;7.68;5.75;;;;;;;3.51;84.48;98877.59;4993262;28;20123;-71
2022/12/13 02:10:59;;;;;;;8.57;5.70;;;;;;;3.47;83.35;98879.31;4991820;28;20034;-71
2022/12/13 02:13:25;;;;;;;8.77;6.13;;;;;;;3.43;82.32;98889.34;4992648;28;20061;-71
2022/12/13 02:16:20;;;;;;;11.05;8.15;;;;;;;3.24;80.64;98900.44;4992894;28;20037;-71
2022/12/13 02:19:11;;;;;;;11.25;6.70;;;;;;;3.35;82.00;98893.63;4992948;28;20552;-70
2022/12/13 02:21:58;;;;;;;13.25;6.82;;;;;;;3.39;81.11;98907.66;4993656;28;20065;-70
2022/12/13 02:25:12;;;;;;;8.18;6.03;;;;;;;3.50;81.20;98908.31;4991368;28;20058;-70
2022/12/13 02:27:48;;;;;;;7.97;5.55;;;;;;;3.51;80.40;98909.97;4973415;28;20070;-69
2022/12/13 02:30:57;;;;;;;10.27;6.35;;;;;;;3.59;79.80;98902.91;4991417;28;20026;-70
2022/12/13 02:33:26;;;;;;;9.40;6.22;;;;;;;3.61;80.17;98908.97;4991426;28;20093;-71
2022/12/13 02:36:17;;;;;;;9.73;6.70;;;;;;;3.49;79.07;98917.75;4992345;28;20026;-71
2022/12/13 02:38:54;;;;;;;10.98;6.88;;;;;;;3.50;79.38;98913.84;5000698;28;20132;-70
2022/12/13 02:41:42;;;;;;;13.27;7.32;;;;;;;3.54;79.54;98906.59;5009042;28;20033;-70
2022/12/13 02:44:32;;;;;;;12.05;7.65;;;;;;;3.61;79.33;98908.97;5010286;28;20037;-71
2022/12/13 02:47:05;;;;;;;16.02;8.32;;;;;;;3.57;79.09;98916.22;5011991;28;20033;-71
2022/12/13 02:49:36;;;;;;;16.95;8.07;;;;;;;3.65;79.38;98908.06;5011503;28;20073;-71
2022/12/13 02:52:03;;;;;;;9.85;6.45;;;;;;;3.67;78.77;98901.41;4995262;28;20384;-71
2022/12/13 02:54:29;;;;;;;10.13;6.35;;;;;;;3.55;78.77;98922.06;4992395;28;20033;-71
2022/12/13 02:56:56;;;;;;;8.32;6.05;;;;;;;3.77;78.11;98918.66;4992448;28;20022;-71
2022/12/13 02:59:27;;;;;;;12.40;7.32;;;;;;;3.68;77.94;98922.41;4992145;28;20037;-71
2022/12/13 03:02:05;;;;;;;15.48;7.82;;;;;;;3.81;77.44;98912.50;5023840;28;20026;-71
2022/12/13 03:07:47;;;;;;;16.08;9.00;;;;;;;3.90;77.39;98917.03;4992839;28;20041;-70
2022/12/13 03:10:22;;;;;;;13.52;8.10;;;;;;;4.05;77.28;98915.13;4992437;28;20034;-71
2022/12/13 03:16:09;;;;;;;9.23;6.43;;;;;;;3.97;77.84;98924.13;4996602;28;20102;-71
2022/12/13 03:18:36;;;;;;;11.05;8.77;;;;;;;4.01;77.03;98920.44;4995040;28;20085;-71
2022/12/13 03:21:04;;;;;;;7.15;5.65;;;;;;;3.96;76.91;98925.25;5005883;28;20402;-71
2022/12/13 03:23:30;;;;;;;8.00;5.82;;;;;;;3.96;77.70;98923.28;5015751;28;20460;-70
2022/12/13 03:26:03;;;;;;;8.68;6.28;;;;;;;3.91;77.27;98920.63;4999746;28;20084;-71
2022/12/13 03:28:29;;;;;;;8.77;6.32;;;;;;;3.76;77.56;98922.56;4996180;28;20121;-71
2022/12/13 03:30:54;;;;;;;8.57;6.93;;;;;;;3.71;78.41;98924.59;4994744;28;20085;-71
2022/12/13 03:33:21;;;;;;;7.55;6.28;;;;;;;3.66;79.01;98922.72;4998933;28;20026;-71
2022/12/13 03:35:47;;;;;;;12.65;8.75;;;;;;;3.55;78.61;98915.72;5014556;28;20037;-71
2022/12/13 03:38:14;;;;;;;11.20;7.50;;;;;;;3.67;78.37;98907.75;5015343;28;20084;-70
2022/12/13 03:40:40;;;;;;;8.70;6.55;;;;;;;3.62;77.88;98902.31;5015142;28;20037;-71
2022/12/13 03:43:05;;;;;;;12.00;7.07;;;;;;;3.68;78.06;98903.88;5014549;28;20030;-71
2022/12/13 03:45:31;;;;;;;10.35;8.60;;;;;;;3.60;78.29;98901.78;5015141;28;20476;-71
2022/12/13 03:47:56;;;;;;;13.13;10.50;;;;;;;3.68;77.49;98914.94;5015055;28;20049;-71
2022/12/13 03:50:22;;;;;;;9.75;8.02;;;;;;;3.64;77.42;98909.19;5014383;28;20058;-70
2022/12/13 03:52:50;;;;;;;9.63;7.60;;;;;;;3.75;77.08;98911.78;5012252;28;20049;-71
2022/12/13 03:55:15;;;;;;;9.93;6.45;;;;;;;3.60;77.48;98907.31;5014654;28;20037;-71
2022/12/13 03:57:41;;;;;;;8.90;6.60;;;;;;;3.56;77.31;98900.75;5015341;28;20384;-71
2022/12/13 04:00:07;;;;;;;10.70;5.70;;;;;;;3.36;76.82;98905.50;4997793;28;20034;-71
2022/12/13 04:02:33;;;;;;;7.85;5.85;;;;;;;3.08;77.74;98903.44;4994338;28;20038;-71
2022/12/13 04:04:58;;;;;;;8.57;6.38;;;;;;;3.10;77.81;98900.34;4995222;28;20077;-71
2022/12/13 04:07:23;;;;;;;7.85;6.00;;;;;;;3.32;78.31;98908.06;4995118;28;20026;-70
2022/12/13 04:09:49;;;;;;;14.30;7.53;;;;;;;3.28;78.07;98906.19;5010516;28;20041;-71
2022/12/13 04:14:58;;;;;;;8.75;6.43;;;;;;;3.07;78.61;98903.72;5014358;28;20121;-71
2022/12/13 04:17:24;;;;;;;11.18;7.15;;;;;;;3.00;78.91;98908.78;4995311;28;20050;-71
2022/12/13 04:19:49;;;;;;;18.30;11.95;;;;;;;2.71;79.83;98916.06;4998627;28;20077;-71
2022/12/13 04:22:14;;;;;;;20.65;13.18;;;;;;;2.72;80.67;98916.91;4995136;28;20493;-71
2022/12/13 04:24:40;;;;;;;12.25;8.50;;;;;;;2.69;81.30;98918.31;5026044;28;20386;-71
2022/12/13 04:27:05;;;;;;;10.32;7.00;;;;;;;2.53;81.45;98923.22;5026375;28;20037;-71
2022/12/13 04:29:31;;;;;;;12.75;9.13;;;;;;;2.23;81.56;98916.94;4995046;28;20022;-71
2022/12/13 04:31:56;;;;;;;13.48;7.60;;;;;;;2.18;82.53;98919.78;4994841;28;20060;-71
2022/12/13 04:34:22;;;;;;;13.73;8.93;;;;;;;2.48;82.85;98926.03;4999748;28;20033;-71
2022/12/13 04:36:47;;;;;;;71.05;47.40;;;;;;;2.35;82.83;98919.28;5014371;28;20048;-71
2022/12/13 04:39:13;;;;;;;78.07;50.78;;;;;;;2.38;81.41;98924.22;5014303;28;20030;-71
2022/12/13 04:41:39;;;;;;;87.50;54.92;;;;;;;2.32;82.94;98926.22;5003289;28;20037;-71
2022/12/13 04:44:06;;;;;;;26.33;15.77;;;;;;;2.20;83.98;98931.34;5011357;28;20136;-70
2022/12/13 04:46:33;;;;;;;17.00;10.13;;;;;;;2.05;84.19;98930.38;5000491;28;20029;-71
2022/12/13 04:48:59;;;;;;;31.17;23.13;;;;;;;2.15;84.61;98942.41;5009601;28;20043;-71
2022/12/13 04:51:25;;;;;;;24.02;19.15;;;;;;;2.21;84.23;98947.59;5013587;28;20030;-71
2022/12/13 04:53:51;;;;;;;19.70;13.88;;;;;;;2.35;84.53;98955.16;5013938;28;20083;-71
2022/12/13 04:56:17;;;;;;;13.13;9.65;;;;;;;2.47;84.63;98952.81;5012929;28;20468;-71
2022/12/13 04:58:43;;;;;;;16.90;10.55;;;;;;;2.31;84.39;98956.88;5013910;28;20431;-71
2022/12/13 05:01:09;;;;;;;15.63;11.32;;;;;;;2.25;84.04;98953.34;5012362;28;20033;-71
2022/12/13 05:03:37;;;;;;;14.32;10.15;;;;;;;2.09;83.59;98966.47;5009787;28;20120;-71
2022/12/13 05:06:05;;;;;;;19.63;11.70;;;;;;;2.17;83.52;98965.84;5028686;28;20105;-71
2022/12/13 05:08:30;;;;;;;12.23;8.30;;;;;;;2.17;81.90;98974.13;4994121;28;20460;-71
2022/12/13 05:10:56;;;;;;;11.90;7.32;;;;;;;2.15;81.58;98983.81;5025529;28;20030;-71
2022/12/13 05:13:21;;;;;;;13.65;8.23;;;;;;;2.01;81.19;98972.63;4997937;28;20365;-71
2022/12/13 05:15:54;;;;;;;10.75;7.55;;;;;;;2.00;81.12;98974.56;5013653;28;20400;-70
2022/12/13 05:18:19;;;;;;;11.15;6.88;;;;;;;1.91;80.79;98982.66;5009362;28;20110;-70
2022/12/13 05:20:44;;;;;;;13.48;7.82;;;;;;;1.91;80.43;98981.81;5003459;28;20045;-71
2022/12/13 05:23:10;;;;;;;12.85;8.85;;;;;;;1.88;79.96;98982.41;4995682;28;20497;-71
2022/12/13 05:25:35;;;;;;;19.40;11.02;;;;;;;1.95;79.53;98989.22;5013178;28;20493;-71
2022/12/13 05:28:01;;;;;;;16.50;9.25;;;;;;;1.84;79.47;98995.13;5013426;28;20539;-71
2022/12/13 05:30:26;;;;;;;13.40;7.47;;;;;;;1.86;79.22;98996.47;5012555;28;20060;-71
2022/12/13 05:32:52;;;;;;;12.68;7.80;;;;;;;1.88;79.20;99002.53;5011713;28;20026;-71
2022/12/13 05:35:17;;;;;;;12.85;7.55;;;;;;;2.00;79.40;98996.63;5003474;28;20026;-71
2022/12/13 05:37:43;;;;;;;13.20;9.02;;;;;;;2.05;78.96;99004.03;5032588;28;20045;-71
2022/12/13 05:40:08;;;;;;;14.55;8.10;;;;;;;2.19;78.55;98999.50;5010063;28;20029;-72
2022/12/13 05:42:37;;;;;;;11.43;7.15;;;;;;;2.20;77.89;99005.84;4989486;28;20038;-71
2022/12/13 05:45:05;;;;;;;11.32;7.05;;;;;;;2.37;77.88;99010.94;4990357;28;20532;-69
2022/12/13 05:47:31;;;;;;;20.10;9.38;;;;;;;2.35;76.96;99004.84;4988447;28;20105;-69
2022/12/13 05:49:56;;;;;;;20.02;9.75;;;;;;;2.45;78.03;99010.28;5000104;28;20542;-69
2022/12/13 05:52:22;;;;;;;18.88;9.82;;;;;;;2.56;77.55;99021.22;5008571;28;20038;-70
2022/12/13 05:54:47;;;;;;;20.50;11.02;;;;;;;2.48;77.32;99028.19;5008445;28;20037;-72
2022/12/13 05:57:14;;;;;;;20.58;12.30;;;;;;;2.42;77.14;99032.13;5007693;28;20404;-69
2022/12/13 05:59:39;;;;;;;15.30;9.88;;;;;;;2.35;78.62;99036.03;5000490;28;20673;-71
2022/12/13 06:02:05;;;;;;;21.73;11.27;;;;;;;2.45;78.01;99034.31;5008252;28;20026;-71
2022/12/13 06:04:30;;;;;;;30.55;15.70;;;;;;;2.50;77.34;99050.81;4993710;28;20466;-71
2022/12/13 06:06:56;;;;;;;22.13;12.63;;;;;;;2.38;75.91;99043.75;5019880;28;20764;-70
2022/12/13 06:09:22;;;;;;;30.75;17.38;;;;;;;2.29;74.78;99052.94;4989856;28;20030;-69
2022/12/13 06:11:48;;;;;;;39.08;19.55;;;;;;;2.33;74.97;99049.31;4988544;28;20030;-70
2022/12/13 06:14:14;;;;;;;35.92;15.98;;;;;;;2.46;75.51;99063.56;4995833;28;20053;-70
2022/12/13 06:16:40;;;;;;;92.03;58.30;;;;;;;2.41;74.50;99061.66;4997598;28;20036;-72
2022/12/13 06:19:05;;;;;;;22.65;14.40;;;;;;;2.40;74.61;99071.06;4997345;28;20030;-71
2022/12/13 06:21:34;;;;;;;27.40;15.43;;;;;;;2.32;74.97;99072.53;5001824;28;20064;-73
2022/12/13 06:23:59;;;;;;;133.68;56.13;;;;;;;2.51;75.68;99074.53;5005061;28;20461;-71
2022/12/13 06:26:25;;;;;;;33.42;17.25;;;;;;;2.42;74.53;99081.84;5002207;28;20045;-72
2022/12/13 06:28:50;;;;;;;20.88;12.57;;;;;;;1.94;74.35;99086.88;4999783;28;20034;-71
2022/12/13 06:31:16;;;;;;;24.05;14.23;;;;;;;1.92;75.24;99093.78;4994954;28;20460;-72
2022/12/13 06:33:41;;;;;;;23.55;11.43;;;;;;;1.93;74.91;99093.50;4998892;28;20039;-71
2022/12/13 06:36:08;;;;;;;20.75;13.13;;;;;;;2.08;74.54;99095.34;5009187;28;20033;-74
2022/12/13 06:38:33;;;;;;;18.90;10.93;;;;;;;2.23;72.92;99099.09;5005373;28;20084;-74
2022/12/13 06:41:13;;;;;;;25.02;11.10;;;;;;;2.15;73.93;99091.41;4997710;28;20030;-73
2022/12/13 06:43:43;;;;;;;;;;;;;;;2.24;73.20;99101.56;5004407;28;20029;-74
2022/12/13 06:46:09;;;;;;;25.40;12.27;;;;;;;2.30;72.22;99105.13;5009119;28;20318;-71
2022/12/13 06:48:35;;;;;;;48.30;24.38;;;;;;;2.38;71.38;99095.38;5002341;28;20046;-73
2022/12/13 06:51:01;;;;;;;89.95;42.90;;;;;;;2.35;71.60;99094.00;5005880;28;20061;-72
2022/12/13 06:53:27;;;;;;;82.22;43.92;;;;;;;2.37;70.95;99111.09;5002137;28;20029;-73
2022/12/13 06:55:53;;;;;;;215.63;107.10;;;;;;;2.35;69.86;99129.06;5002975;28;20042;-72
2022/12/13 06:58:18;;;;;;;24.38;13.15;;;;;;;2.33;71.04;99132.13;5006526;28;20030;-72
2022/12/13 07:00:44;;;;;;;66.78;41.03;;;;;;;2.35;69.61;99132.66;5000947;28;20485;-71
2022/12/13 07:03:10;;;;;;;38.30;25.25;;;;;;;2.35;71.74;99129.06;4990539;28;20045;-71
2022/12/13 07:05:39;;;;;;;40.55;24.42;;;;;;;2.41;71.12;99116.03;4997989;28;20121;-74
2022/12/13 07:08:05;;;;;;;43.47;22.95;;;;;;;2.49;70.45;99118.19;4994239;28;20044;-75
2022/12/13 07:10:31;;;;;;;27.75;14.55;;;;;;;2.58;71.24;99123.91;4993074;28;20038;-72
2022/12/13 07:12:56;;;;;;;31.80;16.25;;;;;;;2.67;71.06;99125.75;4989209;28;20120;-74
2022/12/13 07:15:22;;;;;;;19.67;11.93;;;;;;;2.42;71.24;99134.28;4987838;28;20042;-73
2022/12/13 07:17:49;;;;;;;24.25;13.93;;;;;;;2.51;70.14;99138.03;4987617;28;20524;-74
2022/12/13 07:20:15;;;;;;;39.13;20.85;;;;;;;2.60;69.83;99152.88;4991509;28;20066;-73
2022/12/13 07:22:41;;;;;;;34.50;19.77;;;;;;;2.71;71.57;99148.09;4992746;28;20033;-73
2022/12/13 07:25:07;;;;;;;43.88;23.33;;;;;;;2.80;70.51;99151.88;5001421;28;20030;-73
2022/12/13 07:27:33;;;;;;;33.70;19.42;;;;;;;2.88;70.29;99144.88;4992019;28;20500;-72
2022/12/13 07:29:59;;;;;;;26.45;15.07;;;;;;;2.69;69.38;99143.97;4995707;28;20081;-71
2022/12/13 07:32:24;;;;;;;27.42;16.05;;;;;;;2.63;70.10;99146.78;5004263;28;20551;-71
2022/12/13 07:34:50;;;;;;;43.90;22.15;;;;;;;2.66;70.29;99157.25;4999933;28;20038;-70
2022/12/13 07:37:15;;;;;;;66.28;32.67;;;;;;;2.45;71.08;99150.25;4994096;28;20076;-71
2022/12/13 07:39:41;;;;;;;35.97;17.83;;;;;;;2.38;70.68;99156.91;5005630;28;20041;-71
2022/12/13 07:42:06;;;;;;;26.13;16.35;;;;;;;2.18;70.14;99154.34;4994402;28;20026;-71
2022/12/13 07:44:32;;;;;;;25.95;13.93;;;;;;;2.22;69.98;99158.97;4987645;28;20038;-71
2022/12/13 07:46:57;;;;;;;23.42;12.95;;;;;;;2.14;70.12;99144.97;4994908;28;20579;-74
2022/12/13 07:49:22;;;;;;;20.00;11.15;;;;;;;2.01;70.57;99169.31;4995458;28;20046;-71
2022/12/13 07:51:48;;;;;;;32.38;13.38;;;;;;;2.05;71.15;99169.59;5003821;28;20030;-68
2022/12/13 07:54:14;;;;;;;23.17;12.40;;;;;;;2.10;72.16;99167.63;5006653;28;20037;-68
2022/12/13 07:56:39;;;;;;;27.52;14.32;;;;;;;2.17;72.84;99161.78;5000199;28;20471;-70
2022/12/13 07:59:05;;;;;;;23.60;14.10;;;;;;;2.14;71.41;99167.03;4993118;28;20053;-71
2022/12/13 08:01:33;;;;;;;41.78;15.50;;;;;;;2.18;71.36;99174.47;5041223;28;20044;-70
2022/12/13 08:03:59;;;;;;;19.88;12.60;;;;;;;2.04;71.07;99178.97;4993620;28;20038;-71
2022/12/13 08:06:25;;;;;;;25.88;12.93;;;;;;;2.10;72.25;99184.19;4992120;28;20042;-72
2022/12/13 08:08:54;;;;;;;24.10;12.23;;;;;;;2.15;72.54;99185.25;4989924;28;20113;-70
2022/12/13 08:11:20;;;;;;;21.27;11.60;;;;;;;2.24;71.21;99181.63;5035603;28;20036;-71
2022/12/13 08:13:45;;;;;;;20.02;10.50;;;;;;;2.17;70.00;99174.75;5002311;28;20423;-71
2022/12/13 08:16:13;;;;;;;17.55;10.57;;;;;;;2.36;71.64;99181.25;4994301;28;20037;-71
2022/12/13 08:18:39;;;;;;;24.40;12.15;;;;;;;2.30;70.51;99198.97;5004960;28;20031;-73
2022/12/13 08:21:08;;;;;;;27.40;13.52;;;;;;;2.26;71.53;99208.91;4999439;28;20580;-71
2022/12/13 08:23:34;;;;;;;21.98;10.73;;;;;;;2.24;70.13;99202.84;4991784;28;20483;-72
2022/12/13 08:26:00;;;;;;;27.25;13.95;;;;;;;2.30;70.07;99204.47;4992060;28;20118;-73
2022/12/13 08:28:27;;;;;;;33.10;15.57;;;;;;;2.31;70.69;99205.28;4992019;28;20046;-74
2022/12/13 08:30:53;;;;;;;27.38;13.32;;;;;;;2.42;70.42;99211.59;4990277;28;20042;-74
2022/12/13 08:33:19;;;;;;;23.92;13.50;;;;;;;2.49;69.13;99195.50;4991069;28;20034;-74
2022/12/13 08:35:45;;;;;;;27.35;12.48;;;;;;;2.49;70.31;99201.03;4992317;28;20156;-74
2022/12/13 08:38:11;;;;;;;30.98;14.65;;;;;;;2.31;70.06;99192.31;5005680;28;20125;-73
2022/12/13 08:40:37;;;;;;;33.63;16.05;;;;;;;2.33;69.97;99192.84;5010916;28;20116;-72
2022/12/13 08:43:03;;;;;;;19.95;10.85;;;;;;;2.43;69.53;99196.66;5003909;28;20401;-71
2022/12/13 08:45:31;;;;;;;18.30;11.23;;;;;;;2.56;68.30;99193.25;5007828;28;20041;-73
2022/12/13 08:47:58;;;;;;;19.08;10.73;;;;;;;2.49;67.23;99189.97;5003659;28;20109;-72
2022/12/13 08:50:24;;;;;;;30.95;15.48;;;;;;;2.46;68.30;99185.84;4993946;28;20112;-78
2022/12/13 08:52:50;;;;;;;26.92;13.68;;;;;;;2.58;68.31;99181.91;4991075;28;20037;-74
2022/12/13 08:55:16;;;;;;;23.35;12.02;;;;;;;2.59;67.69;99184.38;4999211;28;20092;-71
2022/12/13 08:57:42;;;;;;;24.92;14.18;;;;;;;2.78;68.34;99192.78;5008957;28;20026;-74
2022/12/13 09:00:14;;;;;;;22.67;12.90;;;;;;;2.77;67.77;99198.56;5005192;28;20023;-74
2022/12/13 09:02:40;;;;;;;32.90;18.52;;;;;;;2.73;68.47;99186.47;5001677;28;20500;-74
2022/12/13 09:05:07;;;;;;;25.52;11.38;;;;;;;2.75;67.44;99187.84;5005937;28;20026;-72
2022/12/13 09:07:34;;;;;;;18.48;10.88;;;;;;;2.61;66.04;99168.34;5012032;28;20026;-75
2022/12/13 09:10:00;;;;;;;21.80;12.27;;;;;;;2.76;67.32;99183.13;5006186;28;20410;-73
2022/12/13 09:12:25;;;;;;;22.10;11.10;;;;;;;2.95;66.98;99177.69;5001067;28;20030;-71
2022/12/13 09:14:51;;;;;;;17.17;10.60;;;;;;;2.95;64.63;99170.25;5008927;28;20026;-73
2022/12/13 09:17:16;;;;;;;19.98;10.57;;;;;;;3.00;65.22;99163.00;5011017;28;20022;-74
2022/12/13 09:19:42;;;;;;;19.42;10.77;;;;;;;2.91;66.06;99163.66;5006756;28;20032;-71
2022/12/13 09:22:07;;;;;;;18.27;10.40;;;;;;;3.03;66.85;99157.72;5008487;28;20029;-71
2022/12/13 09:24:33;;;;;;;22.85;11.80;;;;;;;3.01;66.39;99151.66;5003730;28;20076;-71
2022/12/13 09:26:58;;;;;;;37.03;15.68;;;;;;;3.21;65.61;99150.63;5005890;28;20038;-69
2022/12/13 09:29:24;;;;;;;29.38;15.23;;;;;;;3.22;65.33;99132.09;5007628;28;20085;-68
2022/12/13 09:31:50;;;;;;;29.55;14.10;;;;;;;3.29;64.91;99129.78;5003717;28;20045;-69
2022/12/13 09:34:15;;;;;;;25.48;14.98;;;;;;;3.21;66.00;99130.47;5001162;28;20030;-69
2022/12/13 09:36:41;;;;;;;26.80;15.40;;;;;;;3.20;66.02;99128.81;4990551;28;20033;-71
2022/12/13 09:39:08;;;;;;;23.15;13.75;;;;;;;3.21;65.43;99122.97;4993601;28;20118;-72
2022/12/13 09:41:37;;;;;;;44.55;22.20;;;;;;;3.26;65.88;99129.56;5006157;28;20065;-73
2022/12/13 09:44:26;;;;;;;46.50;20.95;;;;;;;3.23;63.59;99104.16;4991351;28;20061;-71
2022/12/13 09:46:53;;;;;;;32.47;16.15;;;;;;;3.21;63.35;99102.81;5003304;28;20048;-73
2022/12/13 09:49:27;;;;;;;19.23;11.10;;;;;;;3.30;64.02;99097.47;4997972;28;20149;-74
2022/12/13 09:51:55;;;;;;;21.48;11.82;;;;;;;3.36;63.69;99099.03;5002335;28;20038;-73
2022/12/13 09:54:23;;;;;;;27.38;14.25;;;;;;;3.47;63.71;99106.06;4998754;28;20423;-73
2022/12/13 09:56:49;;;;;;;21.83;12.77;;;;;;;3.54;63.97;99096.59;5006200;28;20033;-71
2022/12/13 09:59:17;;;;;;;20.63;12.65;;;;;;;3.74;64.95;99088.03;5003805;28;20029;-74
2022/12/13 10:01:44;;;;;;;17.60;11.13;;;;;;;3.89;62.83;99094.44;4992019;28;20061;-70
2022/12/13 10:04:14;;;;;;;19.50;9.90;;;;;;;3.78;61.02;99088.22;4998953;28;20037;-73
2022/12/13 10:06:40;;;;;;;;;;;;;;;3.90;62.37;99087.78;5008670;28;20055;-73
2022/12/13 10:09:11;;;;;;;17.17;10.13;;;;;;;3.97;62.53;99088.22;5009620;28;19948;-71
2022/12/13 10:11:46;;;;;;;21.90;10.60;;;;;;;4.34;62.31;99086.53;5000675;28;20124;-72
2022/12/13 10:14:21;;;;;;;15.10;9.18;;;;;;;4.36;60.09;99083.44;5000350;28;20092;-72
2022/12/13 10:16:54;;;;;;;11.38;7.05;;;;;;;4.22;57.59;99075.09;4997531;28;20033;-71
2022/12/13 10:19:22;;;;;;;15.70;8.05;;;;;;;4.35;59.31;99071.56;5002468;28;20036;-70
2022/12/13 10:21:50;;;;;;;15.35;8.70;;;;;;;4.56;58.40;99071.19;5007486;28;20022;-71
2022/12/13 10:24:20;;;;;;;16.48;9.27;;;;;;;4.64;58.06;99078.81;5006887;28;20413;-73
2022/12/13 10:26:46;;;;;;;16.15;8.73;;;;;;;4.69;57.60;99060.44;5001413;28;20519;-74
2022/12/13 10:29:11;;;;;;;14.70;8.57;;;;;;;4.88;57.32;99063.13;5004893;28;20025;-73
2022/12/13 10:31:46;;;;;;;11.88;6.53;;;;;;;4.90;55.72;99058.91;5000253;28;20076;-75
2022/12/13 10:34:29;;;;;;;12.75;8.00;;;;;;;5.33;56.20;99057.78;4999466;28;20514;-71
2022/12/13 10:36:54;;;;;;;13.90;7.57;;;;;;;5.32;54.88;99063.66;5008348;28;20068;-74
2022/12/13 10:39:41;;;;;;;11.10;7.57;;;;;;;5.42;54.96;99057.06;5009178;28;20103;-75
2022/12/13 10:42:25;;;;;;;16.08;8.05;;;;;;;5.51;56.06;99054.38;5003105;28;20014;-73
2022/12/13 10:45:14;;;;;;;14.13;8.50;;;;;;;5.32;54.63;99053.38;5004500;28;20113;-75
2022/12/13 10:47:43;;;;;;;14.40;8.38;;;;;;;5.39;54.73;99052.13;5000732;28;20022;-74
2022/12/13 10:50:23;;;;;;;13.90;8.63;;;;;;;5.28;53.08;99043.19;5003806;28;20511;-74
2022/12/13 10:52:48;;;;;;;18.77;9.32;;;;;;;5.23;54.33;99033.03;5003001;28;20103;-74
2022/12/13 10:55:24;;;;;;;16.45;9.43;;;;;;;5.29;54.02;99037.34;5006568;28;20468;-73
2022/12/13 10:57:56;;;;;;;23.70;11.23;;;;;;;5.32;55.31;99039.50;5007027;28;20049;-75
2022/12/13 11:00:37;;;;;;;19.40;9.43;;;;;;;5.30;54.27;99024.28;5005297;28;20030;-72
2022/12/13 11:03:04;;;;;;;22.33;11.48;;;;;;;5.16;56.31;99035.41;5003995;28;20073;-73
2022/12/13 11:05:34;;;;;;;15.90;8.55;;;;;;;5.45;54.37;99025.91;5003019;28;20416;-75
2022/12/13 11:08:22;;;;;;;18.40;8.20;;;;;;;5.42;54.79;99027.34;5003281;28;20121;-74
2022/12/13 11:11:02;;;;;;;25.15;12.52;;;;;;;5.25;56.10;99014.16;5007732;28;20109;-74
2022/12/13 11:13:51;;;;;;;;;;;;;;;5.18;56.92;99027.59;5005435;28;20037;-74
2022/12/13 11:16:25;;;;;;;20.27;10.55;;;;;;;5.12;56.49;99010.25;5004702;28;20379;-73
2022/12/13 11:18:57;;;;;;;20.83;9.60;;;;;;;5.24;55.48;99009.72;5007127;28;20759;-74
2022/12/13 11:21:25;;;;;;;20.20;11.45;;;;;;;5.06;55.27;99020.63;4998275;28;20489;-74
2022/12/13 11:23:53;;;;;;;17.83;10.35;;;;;;;5.15;56.30;99009.63;5002621;28;20030;-74
2022/12/13 11:26:22;;;;;;;19.05;10.63;;;;;;;5.31;55.72;99006.53;5003697;28;20025;-73
2022/12/13 11:28:48;;;;;;;18.55;8.27;;;;;;;5.45;55.41;99017.59;5008023;28;20022;-74
2022/12/13 11:31:55;;;;;;;19.02;9.75;;;;;;;5.48;54.65;99015.03;5009455;28;20028;-74
2022/12/13 11:34:32;;;;;;;21.75;10.93;;;;;;;5.54;54.95;99017.66;5007243;28;20468;-74
2022/12/13 11:37:14;;;;;;;16.77;9.63;;;;;;;5.59;53.73;99015.59;5009641;28;20053;-73
2022/12/13 11:39:49;;;;;;;19.95;10.48;;;;;;;5.28;53.83;99007.16;5012964;28;20087;-73
2022/12/13 11:42:40;;;;;;;17.42;10.25;;;;;;;5.25;52.49;99010.53;5010356;28;20117;-73
2022/12/13 11:45:13;;;;;;;21.92;10.27;;;;;;;5.23;52.25;99010.84;5006421;28;20041;-73
2022/12/13 11:47:50;;;;;;;11.90;7.43;;;;;;;5.34;54.17;99005.91;5008496;28;20540;-73